LNI204 WAAA-WAFF
Flight info
| Callsign | LNI204 |
|---|---|
| Flight time | 0h 58m |
| Altitude | 35000 |
| Route | NIVEK |
| Aircraft | B738/M-SDE2E3FGHIRWXY/LB1 |
Departure
| Time | 2026-04-20 06:00 |
|---|---|
| Airport | Sultan Hasanuddin International Airport (WAAA) |
Arrival
| Time | 2026-04-20 06:58 |
|---|---|
| Airport | Mutiara - SIS Al-Jufrie Airport (WAFF) |
| Time | Latitude | Longitude | Altitude | Speed | Heading |
|---|---|---|---|---|---|
| 2026-04-20 05:11 | -5.07711 | 119.54769 | 40 ft | 0 kts | 299° |
| 2026-04-20 05:37 | -5.07712 | 119.54771 | 68 ft | 0 kts | 299° |
| 2026-04-20 05:40 | -5.07714 | 119.54775 | 40 ft | 2 kts | 299° |
| 2026-04-20 05:40 | -5.07721 | 119.54788 | 40 ft | 2 kts | 300° |
| 2026-04-20 05:40 | -5.07728 | 119.54800 | 40 ft | 2 kts | 300° |
| 2026-04-20 05:41 | -5.07735 | 119.54811 | 37 ft | 2 kts | 301° |
| 2026-04-20 05:41 | -5.07742 | 119.54822 | 37 ft | 2 kts | 305° |
| 2026-04-20 05:41 | -5.07749 | 119.54832 | 36 ft | 2 kts | 314° |
| 2026-04-20 05:41 | -5.07755 | 119.54838 | 38 ft | 1 kts | 330° |
| 2026-04-20 05:42 | -5.07760 | 119.54840 | 39 ft | 1 kts | 350° |
| 2026-04-20 05:42 | -5.07766 | 119.54841 | 38 ft | 1 kts | 9° |
| 2026-04-20 05:42 | -5.07772 | 119.54840 | 38 ft | 1 kts | 20° |
| 2026-04-20 05:42 | -5.07777 | 119.54838 | 36 ft | 1 kts | 26° |
| 2026-04-20 05:43 | -5.07782 | 119.54835 | 38 ft | 1 kts | 28° |
| 2026-04-20 05:43 | -5.07787 | 119.54832 | 39 ft | 0 kts | 30° |
| 2026-04-20 05:51 | -5.07774 | 119.54839 | 39 ft | 4 kts | 28° |
| 2026-04-20 05:51 | -5.07733 | 119.54863 | 40 ft | 9 kts | 30° |
| 2026-04-20 05:51 | -5.07671 | 119.54899 | 40 ft | 10 kts | 32° |
| 2026-04-20 05:52 | -5.07613 | 119.54934 | 40 ft | 10 kts | 30° |
| 2026-04-20 05:52 | -5.07585 | 119.54976 | 40 ft | 7 kts | 74° |
| 2026-04-20 05:52 | -5.07586 | 119.55024 | 40 ft | 7 kts | 115° |
| 2026-04-20 05:52 | -5.07614 | 119.55070 | 39 ft | 9 kts | 117° |
| 2026-04-20 05:53 | -5.07607 | 119.55131 | 40 ft | 9 kts | 53° |
| 2026-04-20 05:53 | -5.07554 | 119.55166 | 40 ft | 9 kts | 30° |
| 2026-04-20 05:53 | -5.07491 | 119.55203 | 40 ft | 12 kts | 29° |
| 2026-04-20 05:53 | -5.07410 | 119.55248 | 40 ft | 15 kts | 30° |
| 2026-04-20 05:54 | -5.07305 | 119.55309 | 40 ft | 21 kts | 30° |
| 2026-04-20 05:54 | -5.07152 | 119.55398 | 40 ft | 29 kts | 30° |
| 2026-04-20 05:54 | -5.06959 | 119.55509 | 40 ft | 34 kts | 30° |
| 2026-04-20 05:54 | -5.06789 | 119.55607 | 40 ft | 17 kts | 30° |
| 2026-04-20 05:55 | -5.06728 | 119.55642 | 40 ft | 0 kts | 30° |
| 2026-04-20 05:55 | -5.06719 | 119.55647 | 40 ft | 6 kts | 30° |
| 2026-04-20 05:55 | -5.06667 | 119.55683 | 40 ft | 10 kts | 53° |
| 2026-04-20 05:56 | -5.06674 | 119.55741 | 39 ft | 8 kts | 127° |
| 2026-04-20 05:56 | -5.06680 | 119.55749 | 39 ft | 0 kts | 128° |
| 2026-04-20 05:56 | -5.06681 | 119.55749 | 39 ft | 0 kts | 128° |
| 2026-04-20 05:56 | -5.06694 | 119.55766 | 40 ft | 7 kts | 128° |
| 2026-04-20 05:57 | -5.06729 | 119.55814 | 41 ft | 9 kts | 123° |
| 2026-04-20 05:57 | -5.06758 | 119.55827 | 40 ft | 3 kts | 197° |
| 2026-04-20 05:57 | -5.06766 | 119.55823 | 40 ft | 0 kts | 208° |
| 2026-04-20 05:59 | -5.06767 | 119.55823 | 40 ft | 1 kts | 208° |
| 2026-04-20 05:59 | -5.06808 | 119.55800 | 40 ft | 22 kts | 210° |
| 2026-04-20 05:59 | -5.07166 | 119.55593 | 38 ft | 95 kts | 210° |
| 2026-04-20 06:00 | -5.07929 | 119.55155 | 41 ft | 155 kts | 211° |
| 2026-04-20 06:00 | -5.08941 | 119.54565 | 438 ft | 176 kts | 211° |
| 2026-04-20 06:00 | -5.10024 | 119.53953 | 1215 ft | 177 kts | 211° |
| 2026-04-20 06:00 | -5.11091 | 119.53364 | 2061 ft | 178 kts | 210° |
| 2026-04-20 06:01 | -5.12261 | 119.52714 | 2418 ft | 208 kts | 213° |
| 2026-04-20 06:01 | -5.13341 | 119.51636 | 2526 ft | 236 kts | 242° |
| 2026-04-20 06:01 | -5.13786 | 119.50020 | 2997 ft | 245 kts | 265° |
| 2026-04-20 06:01 | -5.13798 | 119.48280 | 3455 ft | 259 kts | 270° |
| 2026-04-20 06:02 | -5.13773 | 119.46391 | 3883 ft | 278 kts | 270° |
| 2026-04-20 06:02 | -5.13757 | 119.44448 | 4772 ft | 279 kts | 270° |
| 2026-04-20 06:02 | -5.13751 | 119.42477 | 5549 ft | 286 kts | 270° |
| 2026-04-20 06:02 | -5.13748 | 119.40500 | 6437 ft | 287 kts | 270° |
| 2026-04-20 06:03 | -5.13756 | 119.38471 | 7140 ft | 294 kts | 269° |
| 2026-04-20 06:03 | -5.13757 | 119.36426 | 8012 ft | 292 kts | 270° |
| 2026-04-20 06:03 | -5.13761 | 119.34373 | 8774 ft | 296 kts | 270° |
| 2026-04-20 06:03 | -5.13633 | 119.32283 | 9396 ft | 305 kts | 284° |
| 2026-04-20 06:04 | -5.12664 | 119.30399 | 10128 ft | 306 kts | 311° |
| 2026-04-20 06:04 | -5.10973 | 119.29102 | 10454 ft | 324 kts | 337° |
| 2026-04-20 06:04 | -5.08756 | 119.28426 | 10748 ft | 340 kts | 347° |
| 2026-04-20 06:04 | -5.06379 | 119.27907 | 10969 ft | 358 kts | 349° |
| 2026-04-20 06:05 | -5.03898 | 119.27411 | 11399 ft | 368 kts | 349° |
| 2026-04-20 06:05 | -5.01379 | 119.26898 | 12021 ft | 370 kts | 348° |
| 2026-04-20 06:05 | -4.98844 | 119.26360 | 12641 ft | 374 kts | 348° |
| 2026-04-20 06:05 | -4.96288 | 119.25795 | 13217 ft | 378 kts | 347° |
| 2026-04-20 06:06 | -4.93711 | 119.25207 | 13785 ft | 382 kts | 347° |
| 2026-04-20 06:06 | -4.91111 | 119.24602 | 14299 ft | 385 kts | 347° |
| 2026-04-20 06:06 | -4.88482 | 119.23983 | 14819 ft | 388 kts | 347° |
| 2026-04-20 06:06 | -4.85877 | 119.23366 | 15310 ft | 392 kts | 347° |
| 2026-04-20 06:07 | -4.83209 | 119.22732 | 15828 ft | 395 kts | 347° |
| 2026-04-20 06:07 | -4.80518 | 119.22090 | 16314 ft | 398 kts | 347° |
| 2026-04-20 06:07 | -4.77804 | 119.21444 | 16800 ft | 402 kts | 347° |
| 2026-04-20 06:07 | -4.75077 | 119.20794 | 17310 ft | 404 kts | 347° |
| 2026-04-20 06:08 | -4.72328 | 119.20139 | 17781 ft | 407 kts | 347° |
| 2026-04-20 06:08 | -4.69592 | 119.19487 | 18212 ft | 411 kts | 347° |
| 2026-04-20 06:08 | -4.66805 | 119.18823 | 18604 ft | 414 kts | 346° |
| 2026-04-20 06:08 | -4.63997 | 119.18154 | 19049 ft | 415 kts | 346° |
| 2026-04-20 06:09 | -4.61181 | 119.17484 | 19461 ft | 417 kts | 346° |
| 2026-04-20 06:09 | -4.58340 | 119.16807 | 19848 ft | 420 kts | 346° |
| 2026-04-20 06:09 | -4.55488 | 119.16128 | 20250 ft | 422 kts | 346° |
| 2026-04-20 06:09 | -4.52616 | 119.15445 | 20630 ft | 425 kts | 346° |
| 2026-04-20 06:10 | -4.49737 | 119.14759 | 21017 ft | 426 kts | 346° |
| 2026-04-20 06:10 | -4.46840 | 119.14070 | 21390 ft | 429 kts | 346° |
| 2026-04-20 06:10 | -4.43928 | 119.13377 | 21748 ft | 431 kts | 346° |
| 2026-04-20 06:10 | -4.41000 | 119.12680 | 22118 ft | 433 kts | 346° |
| 2026-04-20 06:11 | -4.38098 | 119.11990 | 22483 ft | 435 kts | 346° |
| 2026-04-20 06:11 | -4.35109 | 119.11278 | 22843 ft | 437 kts | 346° |
| 2026-04-20 06:11 | -4.32180 | 119.10582 | 23169 ft | 439 kts | 346° |
| 2026-04-20 06:11 | -4.29193 | 119.09871 | 23496 ft | 441 kts | 346° |
| 2026-04-20 06:12 | -4.26198 | 119.09159 | 23764 ft | 443 kts | 346° |
| 2026-04-20 06:12 | -4.23196 | 119.08445 | 24051 ft | 445 kts | 346° |
| 2026-04-20 06:12 | -4.20174 | 119.07726 | 24321 ft | 446 kts | 347° |
| 2026-04-20 06:12 | -4.17144 | 119.07006 | 24594 ft | 448 kts | 347° |
| 2026-04-20 06:13 | -4.14106 | 119.06283 | 24873 ft | 449 kts | 347° |
| 2026-04-20 06:13 | -4.11051 | 119.05557 | 25139 ft | 451 kts | 347° |
| 2026-04-20 06:13 | -4.07993 | 119.04830 | 25389 ft | 453 kts | 347° |
| 2026-04-20 06:13 | -4.04913 | 119.04098 | 25647 ft | 454 kts | 347° |
| 2026-04-20 06:14 | -4.01828 | 119.03364 | 25909 ft | 456 kts | 347° |
| 2026-04-20 06:14 | -3.98777 | 119.02639 | 26160 ft | 457 kts | 347° |
| 2026-04-20 06:14 | -3.95673 | 119.01901 | 26402 ft | 459 kts | 347° |
| 2026-04-20 06:14 | -3.92558 | 119.01161 | 26646 ft | 461 kts | 347° |
| 2026-04-20 06:15 | -3.89430 | 119.00418 | 26887 ft | 462 kts | 347° |
| 2026-04-20 06:15 | -3.86290 | 118.99672 | 27113 ft | 464 kts | 347° |
| 2026-04-20 06:15 | -3.83148 | 118.98925 | 27342 ft | 465 kts | 347° |
| 2026-04-20 06:15 | -3.79983 | 118.98173 | 27573 ft | 467 kts | 347° |
| 2026-04-20 06:16 | -3.76819 | 118.97421 | 27776 ft | 468 kts | 347° |
| 2026-04-20 06:16 | -3.73642 | 118.96667 | 28001 ft | 470 kts | 347° |
| 2026-04-20 06:16 | -3.70454 | 118.95910 | 28209 ft | 471 kts | 348° |
| 2026-04-20 06:16 | -3.67258 | 118.95151 | 28405 ft | 473 kts | 348° |
| 2026-04-20 06:17 | -3.64052 | 118.94389 | 28624 ft | 474 kts | 348° |
| 2026-04-20 06:17 | -3.60871 | 118.93634 | 28826 ft | 476 kts | 348° |
| 2026-04-20 06:17 | -3.57646 | 118.92868 | 29014 ft | 477 kts | 348° |
| 2026-04-20 06:17 | -3.54408 | 118.92099 | 29198 ft | 479 kts | 348° |
| 2026-04-20 06:18 | -3.51166 | 118.91329 | 29392 ft | 480 kts | 348° |
| 2026-04-20 06:18 | -3.47910 | 118.90556 | 29589 ft | 481 kts | 348° |
| 2026-04-20 06:18 | -3.44648 | 118.89782 | 29829 ft | 481 kts | 348° |
| 2026-04-20 06:18 | -3.41376 | 118.89005 | 30080 ft | 480 kts | 348° |
| 2026-04-20 06:19 | -3.38132 | 118.88235 | 30326 ft | 479 kts | 348° |
| 2026-04-20 06:19 | -3.34926 | 118.87474 | 30548 ft | 479 kts | 348° |
| 2026-04-20 06:19 | -3.31678 | 118.86703 | 30719 ft | 480 kts | 348° |
| 2026-04-20 06:19 | -3.28434 | 118.85933 | 30944 ft | 479 kts | 348° |
| 2026-04-20 06:20 | -3.25189 | 118.85163 | 31214 ft | 478 kts | 348° |
| 2026-04-20 06:20 | -3.21956 | 118.84396 | 31480 ft | 477 kts | 348° |
| 2026-04-20 06:20 | -3.18725 | 118.83630 | 31701 ft | 478 kts | 348° |
| 2026-04-20 06:20 | -3.15491 | 118.82863 | 31926 ft | 478 kts | 348° |
| 2026-04-20 06:21 | -3.12252 | 118.82095 | 32190 ft | 477 kts | 348° |
| 2026-04-20 06:21 | -3.09027 | 118.81330 | 32472 ft | 476 kts | 348° |
| 2026-04-20 06:21 | -3.05804 | 118.80565 | 32729 ft | 475 kts | 348° |
| 2026-04-20 06:21 | -3.02586 | 118.79802 | 32960 ft | 476 kts | 348° |
| 2026-04-20 06:22 | -2.99402 | 118.79048 | 33191 ft | 475 kts | 348° |
| 2026-04-20 06:22 | -2.96186 | 118.78285 | 33446 ft | 475 kts | 348° |
| 2026-04-20 06:22 | -2.92968 | 118.77522 | 33699 ft | 474 kts | 348° |
| 2026-04-20 06:22 | -2.89756 | 118.76761 | 33946 ft | 474 kts | 348° |
| 2026-04-20 06:23 | -2.86554 | 118.76002 | 34182 ft | 473 kts | 348° |
| 2026-04-20 06:23 | -2.83356 | 118.75244 | 34418 ft | 472 kts | 348° |
| 2026-04-20 06:23 | -2.80156 | 118.74486 | 34640 ft | 471 kts | 348° |
| 2026-04-20 06:23 | -2.76965 | 118.73731 | 34836 ft | 471 kts | 348° |
| 2026-04-20 06:24 | -2.70539 | 118.72208 | 34846 ft | 474 kts | 348° |
| 2026-04-20 06:24 | -2.67306 | 118.71665 | 34826 ft | 469 kts | 0° |
| 2026-04-20 06:24 | -2.64126 | 118.71958 | 34847 ft | 462 kts | 16° |
| 2026-04-20 06:25 | -2.58118 | 118.74134 | 34852 ft | 458 kts | 23° |
| 2026-04-20 06:25 | -2.52200 | 118.76489 | 34844 ft | 457 kts | 23° |
| 2026-04-20 06:26 | -2.46259 | 118.78812 | 34845 ft | 458 kts | 22° |
| 2026-04-20 06:26 | -2.41305 | 118.80718 | 34843 ft | 459 kts | 22° |
| 2026-04-20 06:27 | -2.35327 | 118.83002 | 34844 ft | 460 kts | 22° |
| 2026-04-20 06:27 | -2.29354 | 118.85282 | 34842 ft | 462 kts | 22° |
| 2026-04-20 06:28 | -2.23337 | 118.87580 | 34843 ft | 464 kts | 22° |
| 2026-04-20 06:28 | -2.17296 | 118.89887 | 34842 ft | 465 kts | 22° |
| 2026-04-20 06:29 | -2.11244 | 118.92199 | 34843 ft | 466 kts | 22° |
| 2026-04-20 06:29 | -2.05160 | 118.94523 | 34840 ft | 467 kts | 22° |
| 2026-04-20 06:30 | -1.99120 | 118.96830 | 34840 ft | 467 kts | 22° |
| 2026-04-20 06:30 | -1.93034 | 118.99154 | 34605 ft | 471 kts | 22° |
| 2026-04-20 06:31 | -1.89964 | 119.00327 | 34018 ft | 471 kts | 22° |
| 2026-04-20 06:31 | -1.86903 | 119.01496 | 33354 ft | 471 kts | 22° |
| 2026-04-20 06:31 | -1.83855 | 119.02660 | 32858 ft | 467 kts | 22° |
| 2026-04-20 06:31 | -1.80827 | 119.03815 | 32389 ft | 463 kts | 22° |
| 2026-04-20 06:32 | -1.77824 | 119.04961 | 31904 ft | 459 kts | 22° |
| 2026-04-20 06:32 | -1.74847 | 119.06098 | 31444 ft | 456 kts | 22° |
| 2026-04-20 06:32 | -1.71890 | 119.07227 | 30977 ft | 453 kts | 22° |
| 2026-04-20 06:32 | -1.68950 | 119.08350 | 30504 ft | 450 kts | 22° |
| 2026-04-20 06:33 | -1.66066 | 119.09451 | 30040 ft | 447 kts | 22° |
| 2026-04-20 06:33 | -1.63165 | 119.10559 | 29534 ft | 445 kts | 22° |
| 2026-04-20 06:33 | -1.60288 | 119.11658 | 29041 ft | 441 kts | 22° |
| 2026-04-20 06:33 | -1.57424 | 119.12752 | 28556 ft | 438 kts | 22° |
| 2026-04-20 06:34 | -1.54583 | 119.13836 | 28078 ft | 435 kts | 22° |
| 2026-04-20 06:34 | -1.51766 | 119.14912 | 27610 ft | 432 kts | 21° |
| 2026-04-20 06:34 | -1.46179 | 119.17046 | 26696 ft | 427 kts | 21° |
| 2026-04-20 06:35 | -1.43406 | 119.18105 | 26236 ft | 425 kts | 21° |
| 2026-04-20 06:35 | -1.40650 | 119.19158 | 25769 ft | 424 kts | 21° |
| 2026-04-20 06:35 | -1.37902 | 119.20208 | 25300 ft | 422 kts | 21° |
| 2026-04-20 06:35 | -1.35190 | 119.21244 | 24841 ft | 421 kts | 21° |
| 2026-04-20 06:36 | -1.32451 | 119.22291 | 24379 ft | 420 kts | 21° |
| 2026-04-20 06:36 | -1.29723 | 119.23333 | 23918 ft | 419 kts | 21° |
| 2026-04-20 06:36 | -1.26999 | 119.24372 | 23465 ft | 418 kts | 21° |
| 2026-04-20 06:36 | -1.24280 | 119.25409 | 22894 ft | 416 kts | 21° |
| 2026-04-20 06:37 | -1.21603 | 119.26428 | 22406 ft | 407 kts | 21° |
| 2026-04-20 06:37 | -1.18983 | 119.27426 | 21948 ft | 398 kts | 21° |
| 2026-04-20 06:37 | -1.16418 | 119.28404 | 21514 ft | 390 kts | 21° |
| 2026-04-20 06:37 | -1.13906 | 119.29362 | 21098 ft | 383 kts | 21° |
| 2026-04-20 06:38 | -1.11416 | 119.30312 | 20694 ft | 382 kts | 21° |
| 2026-04-20 06:38 | -1.08934 | 119.31260 | 20285 ft | 382 kts | 21° |
| 2026-04-20 06:38 | -1.06449 | 119.32208 | 19859 ft | 382 kts | 21° |
| 2026-04-20 06:38 | -1.03968 | 119.33155 | 19435 ft | 382 kts | 21° |
| 2026-04-20 06:39 | -1.01514 | 119.34092 | 19019 ft | 382 kts | 21° |
| 2026-04-20 06:39 | -0.99036 | 119.35038 | 18596 ft | 382 kts | 20° |
| 2026-04-20 06:39 | -0.96553 | 119.35987 | 18176 ft | 382 kts | 20° |
| 2026-04-20 06:39 | -0.94071 | 119.36934 | 17700 ft | 382 kts | 20° |
| 2026-04-20 06:40 | -0.91598 | 119.37878 | 17259 ft | 378 kts | 20° |
| 2026-04-20 06:40 | -0.89162 | 119.38808 | 16839 ft | 375 kts | 20° |
| 2026-04-20 06:40 | -0.86743 | 119.39733 | 16417 ft | 368 kts | 20° |
| 2026-04-20 06:40 | -0.84368 | 119.40640 | 16012 ft | 362 kts | 20° |
| 2026-04-20 06:41 | -0.82034 | 119.41532 | 15619 ft | 356 kts | 20° |
| 2026-04-20 06:41 | -0.79735 | 119.42411 | 15228 ft | 351 kts | 20° |
| 2026-04-20 06:41 | -0.77469 | 119.43276 | 14858 ft | 349 kts | 20° |
| 2026-04-20 06:41 | -0.75196 | 119.44143 | 14470 ft | 349 kts | 20° |
| 2026-04-20 06:42 | -0.72982 | 119.45151 | 14060 ft | 351 kts | 33° |
| 2026-04-20 06:42 | -0.71176 | 119.46774 | 13630 ft | 352 kts | 51° |
| 2026-04-20 06:42 | -0.69951 | 119.48886 | 13124 ft | 352 kts | 65° |
| 2026-04-20 06:42 | -0.68951 | 119.51120 | 12627 ft | 352 kts | 66° |
| 2026-04-20 06:43 | -0.67975 | 119.53363 | 12155 ft | 352 kts | 66° |
| 2026-04-20 06:43 | -0.67002 | 119.55593 | 11778 ft | 348 kts | 66° |
| 2026-04-20 06:43 | -0.66049 | 119.57756 | 11315 ft | 341 kts | 66° |
| 2026-04-20 06:43 | -0.65096 | 119.59899 | 10865 ft | 332 kts | 66° |
| 2026-04-20 06:44 | -0.64166 | 119.61981 | 10426 ft | 325 kts | 66° |
| 2026-04-20 06:44 | -0.63250 | 119.64022 | 10000 ft | 317 kts | 65° |
| 2026-04-20 06:44 | -0.62372 | 119.65979 | 9921 ft | 298 kts | 65° |
| 2026-04-20 06:44 | -0.61548 | 119.67814 | 9796 ft | 283 kts | 65° |
| 2026-04-20 06:45 | -0.60744 | 119.69603 | 9368 ft | 280 kts | 65° |
| 2026-04-20 06:45 | -0.59948 | 119.71373 | 8983 ft | 276 kts | 65° |
| 2026-04-20 06:45 | -0.59176 | 119.73090 | 8723 ft | 267 kts | 65° |
| 2026-04-20 06:45 | -0.58412 | 119.74786 | 8352 ft | 268 kts | 65° |
| 2026-04-20 06:46 | -0.57554 | 119.76434 | 8079 ft | 267 kts | 52° |
| 2026-04-20 06:46 | -0.56197 | 119.77629 | 7820 ft | 264 kts | 27° |
| 2026-04-20 06:46 | -0.54441 | 119.78085 | 7530 ft | 263 kts | 359° |
| 2026-04-20 06:46 | -0.52665 | 119.77719 | 7357 ft | 262 kts | 339° |
| 2026-04-20 06:47 | -0.50974 | 119.76993 | 7334 ft | 267 kts | 335° |
| 2026-04-20 06:47 | -0.49285 | 119.76215 | 7284 ft | 266 kts | 335° |
| 2026-04-20 06:47 | -0.47622 | 119.75446 | 7279 ft | 262 kts | 332° |
| 2026-04-20 06:47 | -0.46267 | 119.74273 | 7281 ft | 260 kts | 302° |
| 2026-04-20 06:48 | -0.45634 | 119.72583 | 7284 ft | 263 kts | 275° |
| 2026-04-20 06:48 | -0.45841 | 119.70783 | 7289 ft | 263 kts | 248° |
| 2026-04-20 06:48 | -0.46858 | 119.69276 | 7278 ft | 264 kts | 220° |
| 2026-04-20 06:48 | -0.48458 | 119.68430 | 7262 ft | 258 kts | 192° |
| 2026-04-20 06:49 | -0.50186 | 119.68447 | 7267 ft | 252 kts | 165° |
| 2026-04-20 06:49 | -0.51770 | 119.69243 | 6787 ft | 262 kts | 137° |
| 2026-04-20 06:49 | -0.52824 | 119.70717 | 6350 ft | 262 kts | 111° |
| 2026-04-20 06:49 | -0.53264 | 119.72483 | 5878 ft | 261 kts | 105° |
| 2026-04-20 06:50 | -0.54230 | 119.73967 | 5575 ft | 254 kts | 142° |
| 2026-04-20 06:50 | -0.55702 | 119.74873 | 5374 ft | 253 kts | 153° |
| 2026-04-20 06:50 | -0.57287 | 119.75626 | 5152 ft | 249 kts | 155° |
| 2026-04-20 06:50 | -0.58850 | 119.76324 | 4919 ft | 242 kts | 156° |
| 2026-04-20 06:51 | -0.60372 | 119.76996 | 4674 ft | 236 kts | 156° |
| 2026-04-20 06:51 | -0.61854 | 119.77651 | 4412 ft | 230 kts | 155° |
| 2026-04-20 06:51 | -0.63297 | 119.78292 | 4174 ft | 223 kts | 155° |
| 2026-04-20 06:51 | -0.64694 | 119.78912 | 3944 ft | 216 kts | 155° |
| 2026-04-20 06:52 | -0.66044 | 119.79511 | 3693 ft | 209 kts | 155° |
| 2026-04-20 06:52 | -0.67357 | 119.80093 | 3444 ft | 204 kts | 155° |
| 2026-04-20 06:52 | -0.68628 | 119.80658 | 3185 ft | 195 kts | 155° |
| 2026-04-20 06:52 | -0.69839 | 119.81195 | 2936 ft | 187 kts | 155° |
| 2026-04-20 06:53 | -0.71012 | 119.81716 | 2682 ft | 183 kts | 156° |
| 2026-04-20 06:53 | -0.72150 | 119.82222 | 2460 ft | 178 kts | 155° |
| 2026-04-20 06:53 | -0.73266 | 119.82715 | 2271 ft | 172 kts | 156° |
| 2026-04-20 06:53 | -0.74358 | 119.83198 | 2179 ft | 170 kts | 156° |
| 2026-04-20 06:54 | -0.75404 | 119.83665 | 2174 ft | 160 kts | 155° |
| 2026-04-20 06:54 | -0.76399 | 119.84108 | 2100 ft | 155 kts | 155° |
| 2026-04-20 06:54 | -0.77390 | 119.84549 | 2050 ft | 156 kts | 155° |
| 2026-04-20 06:54 | -0.78377 | 119.84987 | 2043 ft | 154 kts | 155° |
| 2026-04-20 06:55 | -0.79353 | 119.85420 | 2028 ft | 153 kts | 155° |
| 2026-04-20 06:55 | -0.80319 | 119.85848 | 2037 ft | 152 kts | 155° |
| 2026-04-20 06:55 | -0.81285 | 119.86277 | 2040 ft | 153 kts | 155° |
| 2026-04-20 06:55 | -0.82251 | 119.86705 | 2017 ft | 158 kts | 156° |
| 2026-04-20 06:56 | -0.83259 | 119.87152 | 1862 ft | 158 kts | 156° |
| 2026-04-20 06:56 | -0.84264 | 119.87598 | 1681 ft | 158 kts | 156° |
| 2026-04-20 06:56 | -0.85283 | 119.88048 | 1456 ft | 160 kts | 156° |
| 2026-04-20 06:56 | -0.86284 | 119.88481 | 1280 ft | 155 kts | 154° |
| 2026-04-20 06:57 | -0.87273 | 119.88928 | 1095 ft | 157 kts | 157° |
| 2026-04-20 06:57 | -0.88279 | 119.89359 | 890 ft | 157 kts | 157° |
| 2026-04-20 06:57 | -0.89248 | 119.89778 | 674 ft | 147 kts | 153° |
| 2026-04-20 06:57 | -0.90184 | 119.90210 | 421 ft | 153 kts | 156° |
| 2026-04-20 06:58 | -0.91127 | 119.90638 | 241 ft | 140 kts | 154° |
| 2026-04-20 06:58 | -0.91904 | 119.90988 | 240 ft | 95 kts | 156° |
| 2026-04-20 06:58 | -0.92316 | 119.91174 | 232 ft | 34 kts | 156° |
| 2026-04-20 06:58 | -0.92459 | 119.91247 | 233 ft | 22 kts | 143° |
| 2026-04-20 06:59 | -0.92506 | 119.91275 | 235 ft | 1 kts | 195° |
| 2026-04-20 06:59 | -0.92506 | 119.91265 | 234 ft | 2 kts | 287° |
| 2026-04-20 06:59 | -0.92479 | 119.91247 | 235 ft | 8 kts | 336° |
| 2026-04-20 06:59 | -0.92418 | 119.91220 | 233 ft | 10 kts | 335° |
| 2026-04-20 07:00 | -0.92354 | 119.91191 | 235 ft | 10 kts | 336° |
| 2026-04-20 07:00 | -0.92286 | 119.91160 | 235 ft | 12 kts | 336° |
| 2026-04-20 07:00 | -0.92204 | 119.91124 | 236 ft | 14 kts | 336° |
| 2026-04-20 07:00 | -0.92091 | 119.91072 | 237 ft | 20 kts | 335° |
| 2026-04-20 07:01 | -0.91965 | 119.91015 | 239 ft | 19 kts | 335° |
| 2026-04-20 07:01 | -0.91862 | 119.90955 | 241 ft | 6 kts | 293° |
| 2026-04-20 07:01 | -0.91872 | 119.90925 | 238 ft | 5 kts | 242° |
| 2026-04-20 07:01 | -0.91890 | 119.90890 | 241 ft | 7 kts | 243° |
| 2026-04-20 07:02 | -0.91913 | 119.90845 | 239 ft | 7 kts | 244° |
| 2026-04-20 07:02 | -0.91913 | 119.90808 | 238 ft | 6 kts | 311° |
| 2026-04-20 07:02 | -0.91878 | 119.90789 | 238 ft | 6 kts | 335° |
| 2026-04-20 07:02 | -0.91843 | 119.90773 | 236 ft | 6 kts | 336° |
| 2026-04-20 07:03 | -0.91829 | 119.90759 | 235 ft | 2 kts | 274° |
| 2026-04-20 07:03 | -0.91834 | 119.90748 | 235 ft | 2 kts | 244° |
| 2026-04-20 07:03 | -0.91840 | 119.90736 | 228 ft | 2 kts | 244° |
| 2026-04-20 07:03 | -0.91845 | 119.90724 | 228 ft | 2 kts | 245° |
| 2026-04-20 07:04 | -0.91849 | 119.90715 | 229 ft | 0 kts | 245° |